sensor_id;sensor_type;location;lat;lon;timestamp;pressure;altitude;pressure_sealevel;temperature;humidity
71970;BME280;59838;52.152;5.436;2023-03-14T00:01:11;98974.50;;;8.96;100.00
71970;BME280;59838;52.152;5.436;2023-03-14T00:03:38;98967.59;;;8.90;100.00
71970;BME280;59838;52.152;5.436;2023-03-14T00:06:06;98967.22;;;8.87;100.00
71970;BME280;59838;52.152;5.436;2023-03-14T00:08:33;98980.97;;;8.87;100.00
71970;BME280;59838;52.152;5.436;2023-03-14T00:11:10;98979.19;;;8.88;100.00
71970;BME280;59838;52.152;5.436;2023-03-14T00:13:38;98977.59;;;8.87;100.00
71970;BME280;59838;52.152;5.436;2023-03-14T00:16:10;98982.00;;;8.86;100.00
71970;BME280;59838;52.152;5.436;2023-03-14T00:18:38;98974.22;;;8.86;100.00
71970;BME280;59838;52.152;5.436;2023-03-14T00:21:06;98968.59;;;8.89;100.00
71970;BME280;59838;52.152;5.436;2023-03-14T00:23:34;98967.59;;;8.90;100.00
71970;BME280;59838;52.152;5.436;2023-03-14T00:26:10;98972.34;;;8.93;100.00
71970;BME280;59838;52.152;5.436;2023-03-14T00:28:37;98968.31;;;8.98;100.00
71970;BME280;59838;52.152;5.436;2023-03-14T00:31:05;98964.25;;;9.02;100.00
71970;BME280;59838;52.152;5.436;2023-03-14T00:33:33;98965.06;;;9.02;100.00
71970;BME280;59838;52.152;5.436;2023-03-14T00:36:02;98973.06;;;9.01;100.00
71970;BME280;59838;52.152;5.436;2023-03-14T00:38:30;98974.63;;;9.02;100.00
71970;BME280;59838;52.152;5.436;2023-03-14T00:40:56;98975.44;;;9.02;100.00
71970;BME280;59838;52.152;5.436;2023-03-14T00:43:23;98972.84;;;9.02;100.00
71970;BME280;59838;52.152;5.436;2023-03-14T00:45:51;98984.34;;;9.06;100.00
71970;BME280;59838;52.152;5.436;2023-03-14T00:48:19;98970.94;;;9.09;100.00
71970;BME280;59838;52.152;5.436;2023-03-14T00:50:46;98972.31;;;9.12;100.00
71970;BME280;59838;52.152;5.436;2023-03-14T00:53:13;98978.63;;;9.16;100.00
71970;BME280;59838;52.152;5.436;2023-03-14T00:55:40;98977.22;;;9.20;100.00
71970;BME280;59838;52.152;5.436;2023-03-14T00:58:09;98967.28;;;9.17;100.00
71970;BME280;59838;52.152;5.436;2023-03-14T01:00:36;98976.59;;;9.18;100.00
71970;BME280;59838;52.152;5.436;2023-03-14T01:03:03;98988.78;;;9.18;100.00
71970;BME280;59838;52.152;5.436;2023-03-14T01:05:30;98986.63;;;9.14;100.00
71970;BME280;59838;52.152;5.436;2023-03-14T01:07:56;98991.81;;;9.14;100.00
71970;BME280;59838;52.152;5.436;2023-03-14T01:10:23;98988.66;;;9.12;100.00
71970;BME280;59838;52.152;5.436;2023-03-14T01:12:50;98980.09;;;9.12;100.00
71970;BME280;59838;52.152;5.436;2023-03-14T01:15:16;98992.03;;;9.13;100.00
71970;BME280;59838;52.152;5.436;2023-03-14T01:17:43;98990.81;;;9.15;100.00
71970;BME280;59838;52.152;5.436;2023-03-14T01:20:11;98998.81;;;9.14;100.00
71970;BME280;59838;52.152;5.436;2023-03-14T01:22:39;98999.22;;;9.11;100.00
71970;BME280;59838;52.152;5.436;2023-03-14T01:25:07;98994.91;;;9.05;100.00
71970;BME280;59838;52.152;5.436;2023-03-14T01:27:35;99004.13;;;9.01;100.00
71970;BME280;59838;52.152;5.436;2023-03-14T01:30:02;98994.22;;;8.98;100.00
71970;BME280;59838;52.152;5.436;2023-03-14T01:32:29;98999.00;;;8.94;100.00
71970;BME280;59838;52.152;5.436;2023-03-14T01:34:55;99001.81;;;8.92;100.00
71970;BME280;59838;52.152;5.436;2023-03-14T01:37:22;98997.31;;;8.88;100.00
71970;BME280;59838;52.152;5.436;2023-03-14T01:39:48;98991.75;;;8.84;100.00
71970;BME280;59838;52.152;5.436;2023-03-14T01:42:15;98998.16;;;8.82;100.00
71970;BME280;59838;52.152;5.436;2023-03-14T01:45:00;98991.81;;;8.77;100.00
71970;BME280;59838;52.152;5.436;2023-03-14T01:47:27;98988.66;;;8.75;100.00
71970;BME280;59838;52.152;5.436;2023-03-14T01:49:59;98996.66;;;8.74;100.00
71970;BME280;59838;52.152;5.436;2023-03-14T01:52:31;98989.31;;;8.71;100.00
71970;BME280;59838;52.152;5.436;2023-03-14T01:55:07;98981.97;;;8.68;100.00
71970;BME280;59838;52.152;5.436;2023-03-14T01:57:39;98971.63;;;8.68;100.00
71970;BME280;59838;52.152;5.436;2023-03-14T02:00:11;98964.88;;;8.67;100.00
71970;BME280;59838;52.152;5.436;2023-03-14T02:02:45;98962.50;;;8.65;100.00
71970;BME280;59838;52.152;5.436;2023-03-14T02:05:14;98968.66;;;8.64;100.00
71970;BME280;59838;52.152;5.436;2023-03-14T02:07:54;98967.88;;;8.64;100.00
71970;BME280;59838;52.152;5.436;2023-03-14T02:10:22;98974.84;;;8.63;100.00
71970;BME280;59838;52.152;5.436;2023-03-14T02:12:52;98969.66;;;8.63;100.00
71970;BME280;59838;52.152;5.436;2023-03-14T02:15:19;98970.47;;;8.64;100.00
71970;BME280;59838;52.152;5.436;2023-03-14T02:17:46;98965.31;;;8.64;100.00
71970;BME280;59838;52.152;5.436;2023-03-14T02:23:01;98966.44;;;8.68;100.00
71970;BME280;59838;52.152;5.436;2023-03-14T02:25:40;98959.47;;;8.68;100.00
71970;BME280;59838;52.152;5.436;2023-03-14T02:28:08;98960.25;;;8.69;100.00
71970;BME280;59838;52.152;5.436;2023-03-14T02:30:34;98944.94;;;8.67;100.00
71970;BME280;59838;52.152;5.436;2023-03-14T02:33:07;98953.50;;;8.68;100.00
71970;BME280;59838;52.152;5.436;2023-03-14T02:35:41;98941.38;;;8.68;100.00
71970;BME280;59838;52.152;5.436;2023-03-14T02:38:20;98954.31;;;8.68;100.00
71970;BME280;59838;52.152;5.436;2023-03-14T02:40:50;98960.25;;;8.69;100.00
71970;BME280;59838;52.152;5.436;2023-03-14T02:43:17;98952.50;;;8.69;100.00
71970;BME280;59838;52.152;5.436;2023-03-14T02:45:48;98950.69;;;8.69;100.00
71970;BME280;59838;52.152;5.436;2023-03-14T02:48:21;98948.09;;;8.69;100.00
71970;BME280;59838;52.152;5.436;2023-03-14T02:50:53;98936.97;;;8.69;100.00
71970;BME280;59838;52.152;5.436;2023-03-14T02:53:24;98940.56;;;8.68;100.00
71970;BME280;59838;52.152;5.436;2023-03-14T02:55:51;98934.38;;;8.69;100.00
71970;BME280;59838;52.152;5.436;2023-03-14T02:58:19;98929.19;;;8.69;100.00
71970;BME280;59838;52.152;5.436;2023-03-14T03:00:48;98931.00;;;8.68;100.00
71970;BME280;59838;52.152;5.436;2023-03-14T03:03:15;98928.63;;;8.67;100.00
71970;BME280;59838;52.152;5.436;2023-03-14T03:05:42;98930.78;;;8.70;100.00
71970;BME280;59838;52.152;5.436;2023-03-14T03:08:11;98923.81;;;8.70;100.00
71970;BME280;59838;52.152;5.436;2023-03-14T03:10:37;98923.81;;;8.70;100.00
71970;BME280;59838;52.152;5.436;2023-03-14T03:13:04;98917.03;;;8.69;100.00
71970;BME280;59838;52.152;5.436;2023-03-14T03:15:30;98917.84;;;8.70;100.00
71970;BME280;59838;52.152;5.436;2023-03-14T03:17:57;98918.84;;;8.69;100.00
71970;BME280;59838;52.152;5.436;2023-03-14T03:20:23;98930.78;;;8.70;100.00
71970;BME280;59838;52.152;5.436;2023-03-14T03:22:50;98916.25;;;8.69;100.00
71970;BME280;59838;52.152;5.436;2023-03-14T03:25:16;98912.66;;;8.70;100.00
71970;BME280;59838;52.152;5.436;2023-03-14T03:27:43;98912.66;;;8.70;100.00
71970;BME280;59838;52.152;5.436;2023-03-14T03:30:10;98913.66;;;8.69;100.00
71970;BME280;59838;52.152;5.436;2023-03-14T03:32:36;98905.75;;;8.64;100.00
71970;BME280;59838;52.152;5.436;2023-03-14T03:35:04;98912.50;;;8.65;100.00
71970;BME280;59838;52.152;5.436;2023-03-14T03:37:31;98912.50;;;8.65;100.00
71970;BME280;59838;52.152;5.436;2023-03-14T03:39:58;98914.88;;;8.66;100.00
71970;BME280;59838;52.152;5.436;2023-03-14T03:42:26;98905.34;;;8.67;100.00
71970;BME280;59838;52.152;5.436;2023-03-14T03:44:53;98905.34;;;8.67;100.00
71970;BME280;59838;52.152;5.436;2023-03-14T03:47:19;98896.53;;;8.68;100.00
71970;BME280;59838;52.152;5.436;2023-03-14T03:49:46;98896.19;;;8.64;100.00
71970;BME280;59838;52.152;5.436;2023-03-14T03:52:12;98890.78;;;8.66;100.00
71970;BME280;59838;52.152;5.436;2023-03-14T03:54:39;98892.38;;;8.67;100.00
71970;BME280;59838;52.152;5.436;2023-03-14T03:57:05;98890.59;;;8.67;100.00
71970;BME280;59838;52.152;5.436;2023-03-14T03:59:32;98895.75;;;8.67;100.00
71970;BME280;59838;52.152;5.436;2023-03-14T04:01:58;98890.38;;;8.69;100.00
71970;BME280;59838;52.152;5.436;2023-03-14T04:04:25;98894.91;;;8.73;100.00
71970;BME280;59838;52.152;5.436;2023-03-14T04:06:52;98895.25;;;8.77;100.00
71970;BME280;59838;52.152;5.436;2023-03-14T04:09:18;98897.06;;;8.76;100.00
71970;BME280;59838;52.152;5.436;2023-03-14T04:11:45;98901.00;;;8.79;100.00
71970;BME280;59838;52.152;5.436;2023-03-14T04:14:11;98897.19;;;8.82;100.00
71970;BME280;59838;52.152;5.436;2023-03-14T04:16:37;98894.59;;;8.82;100.00
71970;BME280;59838;52.152;5.436;2023-03-14T04:19:04;98902.72;;;8.85;100.00
71970;BME280;59838;52.152;5.436;2023-03-14T04:21:30;98911.03;;;8.87;100.00
71970;BME280;59838;52.152;5.436;2023-03-14T04:23:57;98899.47;;;8.90;100.00
71970;BME280;59838;52.152;5.436;2023-03-14T04:26:23;98910.59;;;8.90;100.00
71970;BME280;59838;52.152;5.436;2023-03-14T04:28:50;98906.81;;;8.93;100.00
71970;BME280;59838;52.152;5.436;2023-03-14T04:31:20;98902.19;;;8.95;100.00
71970;BME280;59838;52.152;5.436;2023-03-14T04:33:47;98907.72;;;8.99;100.00
71970;BME280;59838;52.152;5.436;2023-03-14T04:36:14;98905.72;;;9.01;100.00
71970;BME280;59838;52.152;5.436;2023-03-14T04:38:40;98895.91;;;9.03;100.00
71970;BME280;59838;52.152;5.436;2023-03-14T04:41:07;98893.31;;;9.03;100.00
71970;BME280;59838;52.152;5.436;2023-03-14T04:43:33;98890.53;;;9.04;100.00
71970;BME280;59838;52.152;5.436;2023-03-14T04:46:00;98889.28;;;9.07;100.00
71970;BME280;59838;52.152;5.436;2023-03-14T04:48:27;98889.66;;;9.10;99.76
71970;BME280;59838;52.152;5.436;2023-03-14T04:50:54;98887.84;;;9.11;100.00
71970;BME280;59838;52.152;5.436;2023-03-14T04:53:20;98879.28;;;9.10;100.00
71970;BME280;59838;52.152;5.436;2023-03-14T04:55:52;98878.25;;;9.11;99.91
71970;BME280;59838;52.152;5.436;2023-03-14T04:58:19;98879.63;;;9.14;99.82
71970;BME280;59838;52.152;5.436;2023-03-14T05:00:45;98880.63;;;9.13;100.00
71970;BME280;59838;52.152;5.436;2023-03-14T05:03:14;98884.25;;;9.12;100.00
71970;BME280;59838;52.152;5.436;2023-03-14T05:05:41;98884.47;;;9.10;100.00
71970;BME280;59838;52.152;5.436;2023-03-14T05:08:07;98879.84;;;9.12;100.00
71970;BME280;59838;52.152;5.436;2023-03-14T05:10:34;98880.41;;;9.14;100.00
71970;BME280;59838;52.152;5.436;2023-03-14T05:13:01;98885.03;;;9.12;100.00
71970;BME280;59838;52.152;5.436;2023-03-14T05:15:27;98881.94;;;9.04;100.00
71970;BME280;59838;52.152;5.436;2023-03-14T05:17:54;98886.22;;;8.98;100.00
71970;BME280;59838;52.152;5.436;2023-03-14T05:20:21;98882.69;;;8.92;100.00
71970;BME280;59838;52.152;5.436;2023-03-14T05:22:47;98862.88;;;8.86;100.00
71970;BME280;59838;52.152;5.436;2023-03-14T05:25:14;98866.91;;;8.82;100.00
71970;BME280;59838;52.152;5.436;2023-03-14T05:27:40;98860.59;;;8.78;100.00
71970;BME280;59838;52.152;5.436;2023-03-14T05:30:07;98871.16;;;8.76;100.00
71970;BME280;59838;52.152;5.436;2023-03-14T05:32:34;98864.81;;;8.72;100.00
71970;BME280;59838;52.152;5.436;2023-03-14T05:35:01;98870.44;;;8.69;100.00
71970;BME280;59838;52.152;5.436;2023-03-14T05:37:28;98868.88;;;8.68;100.00
71970;BME280;59838;52.152;5.436;2023-03-14T05:39:54;98864.69;;;8.67;100.00
71970;BME280;59838;52.152;5.436;2023-03-14T05:42:20;98866.72;;;8.65;100.00
71970;BME280;59838;52.152;5.436;2023-03-14T05:44:47;98871.09;;;8.65;100.00
71970;BME280;59838;52.152;5.436;2023-03-14T05:47:13;98865.34;;;8.63;100.00
71970;BME280;59838;52.152;5.436;2023-03-14T05:49:40;98871.53;;;8.62;100.00
71970;BME280;59838;52.152;5.436;2023-03-14T05:52:06;98869.41;;;8.58;100.00
71970;BME280;59838;52.152;5.436;2023-03-14T05:54:33;98863.19;;;8.59;100.00
71970;BME280;59838;52.152;5.436;2023-03-14T05:56:59;98864.66;;;8.55;100.00
71970;BME280;59838;52.152;5.436;2023-03-14T05:59:26;98866.44;;;8.55;100.00
71970;BME280;59838;52.152;5.436;2023-03-14T06:01:52;98863.84;;;8.55;100.00
71970;BME280;59838;52.152;5.436;2023-03-14T06:04:19;98858.09;;;8.53;100.00
71970;BME280;59838;52.152;5.436;2023-03-14T06:06:45;98859.91;;;8.52;100.00
71970;BME280;59838;52.152;5.436;2023-03-14T06:09:12;98851.09;;;8.53;100.00
71970;BME280;59838;52.152;5.436;2023-03-14T06:11:38;98859.91;;;8.52;100.00
71970;BME280;59838;52.152;5.436;2023-03-14T06:14:04;98859.09;;;8.52;100.00
71970;BME280;59838;52.152;5.436;2023-03-14T06:16:31;98858.09;;;8.53;100.00
71970;BME280;59838;52.152;5.436;2023-03-14T06:18:58;98869.00;;;8.55;100.00
71970;BME280;59838;52.152;5.436;2023-03-14T06:21:25;98863.41;;;8.58;100.00
71970;BME280;59838;52.152;5.436;2023-03-14T06:23:51;98878.72;;;8.59;100.00
71970;BME280;59838;52.152;5.436;2023-03-14T06:26:18;98877.72;;;8.60;100.00
71970;BME280;59838;52.152;5.436;2023-03-14T06:28:44;98876.13;;;8.59;100.00
71970;BME280;59838;52.152;5.436;2023-03-14T06:31:11;98884.47;;;8.62;100.00
71970;BME280;59838;52.152;5.436;2023-03-14T06:33:37;98892.44;;;8.60;100.00
71970;BME280;59838;52.152;5.436;2023-03-14T06:36:04;98908.22;;;8.58;100.00
71970;BME280;59838;52.152;5.436;2023-03-14T06:38:31;98921.94;;;8.59;100.00
71970;BME280;59838;52.152;5.436;2023-03-14T06:41:03;98944.44;;;8.58;100.00
71970;BME280;59838;52.152;5.436;2023-03-14T06:43:30;98945.22;;;8.59;100.00
71970;BME280;59838;52.152;5.436;2023-03-14T06:45:56;98954.63;;;8.53;100.00
71970;BME280;59838;52.152;5.436;2023-03-14T06:48:23;98952.69;;;8.49;100.00
71970;BME280;59838;52.152;5.436;2023-03-14T06:50:49;98970.84;;;8.42;100.00
71970;BME280;59838;52.152;5.436;2023-03-14T06:53:16;98995.03;;;8.29;100.00
71970;BME280;59838;52.152;5.436;2023-03-14T06:55:43;98996.13;;;8.21;100.00
71970;BME280;59838;52.152;5.436;2023-03-14T06:58:10;99005.50;;;8.16;100.00
71970;BME280;59838;52.152;5.436;2023-03-14T07:00:36;99012.75;;;8.07;100.00
71970;BME280;59838;52.152;5.436;2023-03-14T07:03:03;99017.56;;;7.97;100.00
71970;BME280;59838;52.152;5.436;2023-03-14T07:05:29;99028.97;;;7.89;100.00
71970;BME280;59838;52.152;5.436;2023-03-14T07:07:57;99028.00;;;7.83;100.00
71970;BME280;59838;52.152;5.436;2023-03-14T07:10:23;99048.53;;;7.78;100.00
71970;BME280;59838;52.152;5.436;2023-03-14T07:12:50;99049.72;;;7.76;100.00
71970;BME280;59838;52.152;5.436;2023-03-14T07:15:16;99057.47;;;7.76;100.00
71970;BME280;59838;52.152;5.436;2023-03-14T07:17:45;99062.06;;;7.74;100.00
71970;BME280;59838;52.152;5.436;2023-03-14T07:20:14;99070.84;;;7.66;100.00
71970;BME280;59838;52.152;5.436;2023-03-14T07:22:41;99085.00;;;7.63;100.00
71970;BME280;59838;52.152;5.436;2023-03-14T07:25:08;99092.38;;;7.60;100.00
71970;BME280;59838;52.152;5.436;2023-03-14T07:27:38;99107.47;;;7.56;100.00
71970;BME280;59838;52.152;5.436;2023-03-14T07:30:05;99111.28;;;7.54;100.00
71970;BME280;59838;52.152;5.436;2023-03-14T07:32:32;99122.81;;;7.51;100.00
71970;BME280;59838;52.152;5.436;2023-03-14T07:34:59;99144.69;;;7.48;100.00
71970;BME280;59838;52.152;5.436;2023-03-14T07:37:25;99147.69;;;7.45;100.00
71970;BME280;59838;52.152;5.436;2023-03-14T07:39:52;99159.22;;;7.36;100.00
71970;BME280;59838;52.152;5.436;2023-03-14T07:42:18;99167.38;;;7.33;100.00
71970;BME280;59838;52.152;5.436;2023-03-14T07:44:46;99182.50;;;7.29;100.00
71970;BME280;59838;52.152;5.436;2023-03-14T07:47:13;99184.50;;;7.27;100.00
71970;BME280;59838;52.152;5.436;2023-03-14T07:49:40;99197.00;;;7.24;100.00
71970;BME280;59838;52.152;5.436;2023-03-14T07:52:07;99209.31;;;7.22;100.00
71970;BME280;59838;52.152;5.436;2023-03-14T07:54:34;99218.88;;;7.21;100.00
71970;BME280;59838;52.152;5.436;2023-03-14T07:57:01;99231.19;;;7.26;100.00
71970;BME280;59838;52.152;5.436;2023-03-14T07:59:28;99241.91;;;7.23;100.00
71970;BME280;59838;52.152;5.436;2023-03-14T08:01:56;99263.75;;;7.13;100.00
71970;BME280;59838;52.152;5.436;2023-03-14T08:04:23;99271.88;;;6.84;100.00
71970;BME280;59838;52.152;5.436;2023-03-14T08:06:50;99290.53;;;6.72;100.00
71970;BME280;59838;52.152;5.436;2023-03-14T08:09:19;99307.13;;;6.50;100.00
71970;BME280;59838;52.152;5.436;2023-03-14T08:11:45;99312.84;;;6.38;100.00
71970;BME280;59838;52.152;5.436;2023-03-14T08:14:12;99324.69;;;6.26;100.00
71970;BME280;59838;52.152;5.436;2023-03-14T08:16:38;99347.66;;;6.21;100.00
71970;BME280;59838;52.152;5.436;2023-03-14T08:19:05;99357.09;;;6.07;100.00
71970;BME280;59838;52.152;5.436;2023-03-14T08:21:34;99357.47;;;6.04;100.00
71970;BME280;59838;52.152;5.436;2023-03-14T08:24:00;99376.09;;;5.99;99.51
71970;BME280;59838;52.152;5.436;2023-03-14T08:26:27;99383.56;;;5.94;99.48
71970;BME280;59838;52.152;5.436;2023-03-14T08:28:53;99389.38;;;5.96;99.95
71970;BME280;59838;52.152;5.436;2023-03-14T08:31:20;99407.56;;;5.95;99.45
71970;BME280;59838;52.152;5.436;2023-03-14T08:33:47;99409.47;;;5.86;100.00
71970;BME280;59838;52.152;5.436;2023-03-14T08:36:14;99428.19;;;5.95;100.00
71970;BME280;59838;52.152;5.436;2023-03-14T08:38:41;99436.78;;;6.02;99.53
71970;BME280;59838;52.152;5.436;2023-03-14T08:41:10;99448.94;;;6.08;99.42
71970;BME280;59838;52.152;5.436;2023-03-14T08:43:38;99454.75;;;6.17;99.17
71970;BME280;59838;52.152;5.436;2023-03-14T08:46:05;99463.94;;;6.26;98.91
71970;BME280;59838;52.152;5.436;2023-03-14T08:48:32;99479.59;;;6.25;97.94
71970;BME280;59838;52.152;5.436;2023-03-14T08:51:10;99494.19;;;6.39;97.13
71970;BME280;59838;52.152;5.436;2023-03-14T08:53:39;99505.13;;;6.41;96.10
71970;BME280;59838;52.152;5.436;2023-03-14T08:56:07;99517.84;;;6.43;94.99
71970;BME280;59838;52.152;5.436;2023-03-14T08:58:37;99528.66;;;6.31;94.60
71970;BME280;59838;52.152;5.436;2023-03-14T09:01:08;99534.81;;;6.30;94.77
71970;BME280;59838;52.152;5.436;2023-03-14T09:03:37;99542.59;;;6.37;95.49
71970;BME280;59838;52.152;5.436;2023-03-14T09:06:09;99556.56;;;6.49;95.94
71970;BME280;59838;52.152;5.436;2023-03-14T09:08:36;99564.38;;;6.56;95.25
71970;BME280;59838;52.152;5.436;2023-03-14T09:11:07;99572.69;;;6.51;92.88
71970;BME280;59838;52.152;5.436;2023-03-14T09:13:36;99587.41;;;6.57;93.58
71970;BME280;59838;52.152;5.436;2023-03-14T09:16:04;99603.56;;;6.45;92.52
71970;BME280;59838;52.152;5.436;2023-03-14T09:18:31;99613.66;;;6.39;92.55
71970;BME280;59838;52.152;5.436;2023-03-14T09:20:57;99620.38;;;6.34;91.90
71970;BME280;59838;52.152;5.436;2023-03-14T09:23:24;99614.16;;;6.28;90.99
71970;BME280;59838;52.152;5.436;2023-03-14T09:25:55;99627.16;;;6.20;90.59
71970;BME280;59838;52.152;5.436;2023-03-14T09:28:22;99636.88;;;6.18;91.47
71970;BME280;59838;52.152;5.436;2023-03-14T09:30:48;99646.34;;;6.32;90.57
71970;BME280;59838;52.152;5.436;2023-03-14T09:33:18;99652.22;;;6.48;89.48
71970;BME280;59838;52.152;5.436;2023-03-14T09:35:47;99660.06;;;6.54;89.05
71970;BME280;59838;52.152;5.436;2023-03-14T09:38:14;99668.41;;;6.56;89.27
71970;BME280;59838;52.152;5.436;2023-03-14T09:40:42;99680.63;;;6.69;88.18
71970;BME280;59838;52.152;5.436;2023-03-14T09:43:11;99691.66;;;6.85;88.45
71970;BME280;59838;52.152;5.436;2023-03-14T09:45:41;99708.81;;;6.92;87.79
71970;BME280;59838;52.152;5.436;2023-03-14T09:48:17;99710.59;;;6.92;86.86
71970;BME280;59838;52.152;5.436;2023-03-14T09:50:51;99716.50;;;6.86;86.05
71970;BME280;59838;52.152;5.436;2023-03-14T09:53:27;99731.38;;;6.84;86.34
71970;BME280;59838;52.152;5.436;2023-03-14T09:55:58;99744.34;;;6.90;86.63
71970;BME280;59838;52.152;5.436;2023-03-14T09:58:25;99741.22;;;6.95;87.14
71970;BME280;59838;52.152;5.436;2023-03-14T10:00:55;99750.38;;;6.98;84.36
71970;BME280;59838;52.152;5.436;2023-03-14T10:05:57;99762.91;;;7.01;84.76
71970;BME280;59838;52.152;5.436;2023-03-14T10:08:24;99776.38;;;6.96;85.00
71970;BME280;59838;52.152;5.436;2023-03-14T10:10:53;99779.19;;;7.01;85.71
71970;BME280;59838;52.152;5.436;2023-03-14T10:13:26;99789.41;;;7.09;85.71
71970;BME280;59838;52.152;5.436;2023-03-14T10:16:03;99810.88;;;7.10;85.27
71970;BME280;59838;52.152;5.436;2023-03-14T10:18:32;99819.22;;;6.90;85.88
71970;BME280;59838;52.152;5.436;2023-03-14T10:23:49;99846.09;;;6.59;86.38
71970;BME280;59838;52.152;5.436;2023-03-14T10:26:27;99859.06;;;6.66;87.05
71970;BME280;59838;52.152;5.436;2023-03-14T10:29:02;99868.22;;;6.84;87.40
71970;BME280;59838;52.152;5.436;2023-03-14T10:31:47;99872.28;;;6.93;87.20
71970;BME280;59838;52.152;5.436;2023-03-14T10:34:24;99887.16;;;6.91;86.42
71970;BME280;59838;52.152;5.436;2023-03-14T10:36:57;99882.94;;;7.05;87.44
71970;BME280;59838;52.152;5.436;2023-03-14T10:39:34;99903.56;;;7.20;86.69
71970;BME280;59838;52.152;5.436;2023-03-14T10:42:14;99909.09;;;7.17;84.06
71970;BME280;59838;52.152;5.436;2023-03-14T10:44:41;99916.16;;;7.08;82.75
71970;BME280;59838;52.152;5.436;2023-03-14T10:47:19;99931.56;;;7.01;80.32
71970;BME280;59838;52.152;5.436;2023-03-14T10:49:48;99950.81;;;6.99;81.45
71970;BME280;59838;52.152;5.436;2023-03-14T10:52:25;99962.09;;;6.98;79.61
71970;BME280;59838;52.152;5.436;2023-03-14T10:55:10;99976.47;;;6.70;80.21
71970;BME280;59838;52.152;5.436;2023-03-14T10:57:42;99991.22;;;6.47;80.75
71970;BME280;59838;52.152;5.436;2023-03-14T11:00:18;100005.72;;;6.48;81.68
71970;BME280;59838;52.152;5.436;2023-03-14T11:03:06;100012.31;;;6.65;82.51
71970;BME280;59838;52.152;5.436;2023-03-14T11:08:34;100027.72;;;6.73;79.59
71970;BME280;59838;52.152;5.436;2023-03-14T11:11:13;100031.13;;;6.74;78.30
71970;BME280;59838;52.152;5.436;2023-03-14T11:16:43;100047.41;;;6.74;78.33
71970;BME280;59838;52.152;5.436;2023-03-14T11:28:15;100083.84;;;8.12;70.04
71970;BME280;59838;52.152;5.436;2023-03-14T11:31:04;100096.59;;;8.14;70.48
71970;BME280;59838;52.152;5.436;2023-03-14T11:33:49;100107.00;;;7.99;67.93
71970;BME280;59838;52.152;5.436;2023-03-14T11:36:24;100109.72;;;7.91;67.07
71970;BME280;59838;52.152;5.436;2023-03-14T11:38:56;100123.44;;;8.13;66.82
71970;BME280;59838;52.152;5.436;2023-03-14T11:41:57;100136.03;;;8.16;66.32
71970;BME280;59838;52.152;5.436;2023-03-14T11:44:30;100140.66;;;8.42;66.16
71970;BME280;59838;52.152;5.436;2023-03-14T11:47:07;100141.97;;;8.53;62.88
71970;BME280;59838;52.152;5.436;2023-03-14T11:49:43;100142.63;;;8.62;62.89
71970;BME280;59838;52.152;5.436;2023-03-14T11:52:31;100161.72;;;8.54;62.11
71970;BME280;59838;52.152;5.436;2023-03-14T11:55:34;100162.00;;;8.66;61.75
71970;BME280;59838;52.152;5.436;2023-03-14T11:58:17;100177.47;;;8.81;58.94
71970;BME280;59838;52.152;5.436;2023-03-14T12:00:48;100178.91;;;8.83;60.49
71970;BME280;59838;52.152;5.436;2023-03-14T12:08:53;100198.00;;;8.82;60.81
71970;BME280;59838;52.152;5.436;2023-03-14T12:12:01;100204.06;;;8.89;57.63
71970;BME280;59838;52.152;5.436;2023-03-14T12:14:33;100210.09;;;8.96;57.98
71970;BME280;59838;52.152;5.436;2023-03-14T12:20:21;100218.63;;;9.19;59.02
71970;BME280;59838;52.152;5.436;2023-03-14T12:22:53;100222.75;;;9.13;57.80
71970;BME280;59838;52.152;5.436;2023-03-14T12:25:26;100223.78;;;9.12;55.18
71970;BME280;59838;52.152;5.436;2023-03-14T12:35:41;100241.44;;;8.80;53.14
71970;BME280;59838;52.152;5.436;2023-03-14T12:41:48;100260.28;;;8.74;55.39
71970;BME280;59838;52.152;5.436;2023-03-14T12:44:47;100268.25;;;8.72;53.38
71970;BME280;59838;52.152;5.436;2023-03-14T12:49:54;100277.56;;;8.88;51.04
71970;BME280;59838;52.152;5.436;2023-03-14T12:52:45;100271.00;;;8.71;52.07
71970;BME280;59838;52.152;5.436;2023-03-14T12:55:33;100287.22;;;8.58;50.86
71970;BME280;59838;52.152;5.436;2023-03-14T12:58:08;100297.25;;;8.46;52.40
71970;BME280;59838;52.152;5.436;2023-03-14T13:00:39;100304.91;;;8.54;51.61
71970;BME280;59838;52.152;5.436;2023-03-14T13:03:21;100316.88;;;8.26;51.22
71970;BME280;59838;52.152;5.436;2023-03-14T13:05:57;100329.03;;;8.10;52.88
71970;BME280;59838;52.152;5.436;2023-03-14T13:11:01;100329.47;;;8.44;54.50
71970;BME280;59838;52.152;5.436;2023-03-14T13:13:31;100326.75;;;8.67;53.86
71970;BME280;59838;52.152;5.436;2023-03-14T13:16:00;100329.50;;;8.80;53.06
71970;BME280;59838;52.152;5.436;2023-03-14T13:18:38;100331.66;;;8.98;51.63
71970;BME280;59838;52.152;5.436;2023-03-14T13:21:21;100351.78;;;8.81;51.29
71970;BME280;59838;52.152;5.436;2023-03-14T13:24:01;100355.81;;;8.47;48.95
71970;BME280;59838;52.152;5.436;2023-03-14T13:26:41;100370.25;;;8.27;48.89
71970;BME280;59838;52.152;5.436;2023-03-14T13:29:39;100382.88;;;8.06;50.35
71970;BME280;59838;52.152;5.436;2023-03-14T13:32:26;100385.44;;;7.92;50.70
71970;BME280;59838;52.152;5.436;2023-03-14T13:34:59;100389.25;;;8.19;52.47
71970;BME280;59838;52.152;5.436;2023-03-14T13:37:26;100395.63;;;8.46;51.81
71970;BME280;59838;52.152;5.436;2023-03-14T13:39:54;100386.59;;;8.72;51.66
71970;BME280;59838;52.152;5.436;2023-03-14T13:42:28;100391.19;;;8.91;49.80
71970;BME280;59838;52.152;5.436;2023-03-14T13:44:59;100403.50;;;9.04;51.90
71970;BME280;59838;52.152;5.436;2023-03-14T13:47:26;100414.16;;;9.16;51.27
71970;BME280;59838;52.152;5.436;2023-03-14T13:49:53;100423.84;;;8.92;50.66
71970;BME280;59838;52.152;5.436;2023-03-14T13:52:31;100437.38;;;8.73;50.84
71970;BME280;59838;52.152;5.436;2023-03-14T13:55:00;100428.91;;;8.64;51.22
71970;BME280;59838;52.152;5.436;2023-03-14T13:57:27;100443.47;;;8.65;52.76
71970;BME280;59838;52.152;5.436;2023-03-14T14:00:05;100456.41;;;8.50;52.40
71970;BME280;59838;52.152;5.436;2023-03-14T14:02:39;100452.47;;;8.54;52.08
71970;BME280;59838;52.152;5.436;2023-03-14T14:05:10;100461.72;;;8.34;52.64